sensor_id;sensor_type;location;lat;lon;timestamp;P1;durP1;ratioP1;P2;durP2;ratioP2
10150;SDS011;5116;52.318;4.644;2022-09-29T00:00:26;1.50;;;1.40;;
10150;SDS011;5116;52.318;4.644;2022-09-29T00:02:53;1.50;;;1.40;;
10150;SDS011;5116;52.318;4.644;2022-09-29T00:05:21;0.93;;;0.93;;
10150;SDS011;5116;52.318;4.644;2022-09-29T00:07:49;1.47;;;1.37;;
10150;SDS011;5116;52.318;4.644;2022-09-29T00:10:16;1.30;;;1.20;;
10150;SDS011;5116;52.318;4.644;2022-09-29T00:12:43;1.37;;;1.27;;
10150;SDS011;5116;52.318;4.644;2022-09-29T00:15:11;1.30;;;1.20;;
10150;SDS011;5116;52.318;4.644;2022-09-29T00:17:39;1.07;;;1.07;;
10150;SDS011;5116;52.318;4.644;2022-09-29T00:20:26;1.27;;;1.17;;
10150;SDS011;5116;52.318;4.644;2022-09-29T00:22:53;1.40;;;1.30;;
10150;SDS011;5116;52.318;4.644;2022-09-29T00:25:20;1.27;;;1.17;;
10150;SDS011;5116;52.318;4.644;2022-09-29T00:27:48;1.30;;;1.20;;
10150;SDS011;5116;52.318;4.644;2022-09-29T00:30:15;1.03;;;1.03;;
10150;SDS011;5116;52.318;4.644;2022-09-29T00:32:42;1.23;;;1.13;;
10150;SDS011;5116;52.318;4.644;2022-09-29T00:35:09;1.53;;;1.23;;
10150;SDS011;5116;52.318;4.644;2022-09-29T00:37:37;1.40;;;1.30;;
10150;SDS011;5116;52.318;4.644;2022-09-29T00:40:05;1.17;;;1.17;;
10150;SDS011;5116;52.318;4.644;2022-09-29T00:42:33;1.30;;;1.20;;
10150;SDS011;5116;52.318;4.644;2022-09-29T00:45:05;1.37;;;1.27;;
10150;SDS011;5116;52.318;4.644;2022-09-29T00:47:37;1.40;;;1.30;;
10150;SDS011;5116;52.318;4.644;2022-09-29T00:52:52;1.60;;;1.50;;
10150;SDS011;5116;52.318;4.644;2022-09-29T00:55:28;1.40;;;1.30;;
10150;SDS011;5116;52.318;4.644;2022-09-29T00:58:04;1.03;;;1.03;;
10150;SDS011;5116;52.318;4.644;2022-09-29T01:00:32;1.30;;;1.10;;
10150;SDS011;5116;52.318;4.644;2022-09-29T01:03:00;1.23;;;1.10;;
10150;SDS011;5116;52.318;4.644;2022-09-29T01:05:31;1.50;;;1.30;;
10150;SDS011;5116;52.318;4.644;2022-09-29T01:08:05;1.17;;;1.07;;
10150;SDS011;5116;52.318;4.644;2022-09-29T01:10:34;1.30;;;1.20;;
10150;SDS011;5116;52.318;4.644;2022-09-29T01:13:02;1.33;;;1.23;;
10150;SDS011;5116;52.318;4.644;2022-09-29T01:15:29;1.27;;;1.13;;
10150;SDS011;5116;52.318;4.644;2022-09-29T01:17:57;1.10;;;1.10;;
10150;SDS011;5116;52.318;4.644;2022-09-29T01:20:24;1.17;;;1.07;;
10150;SDS011;5116;52.318;4.644;2022-09-29T01:33:17;1.50;;;1.40;;
10150;SDS011;5116;52.318;4.644;2022-09-29T01:43:30;1.50;;;1.30;;
10150;SDS011;5116;52.318;4.644;2022-09-29T01:46:00;1.30;;;1.20;;
10150;SDS011;5116;52.318;4.644;2022-09-29T01:48:30;1.37;;;1.20;;
10150;SDS011;5116;52.318;4.644;2022-09-29T01:51:00;1.40;;;1.30;;
10150;SDS011;5116;52.318;4.644;2022-09-29T01:53:33;1.27;;;1.17;;
10150;SDS011;5116;52.318;4.644;2022-09-29T01:56:02;1.10;;;1.10;;
10150;SDS011;5116;52.318;4.644;2022-09-29T01:58:53;1.33;;;1.23;;
10150;SDS011;5116;52.318;4.644;2022-09-29T02:01:19;1.93;;;1.47;;
10150;SDS011;5116;52.318;4.644;2022-09-29T02:03:52;1.20;;;1.10;;
10150;SDS011;5116;52.318;4.644;2022-09-29T02:06:24;1.30;;;1.20;;
10150;SDS011;5116;52.318;4.644;2022-09-29T02:08:54;1.53;;;1.30;;
10150;SDS011;5116;52.318;4.644;2022-09-29T02:11:22;1.03;;;1.03;;
10150;SDS011;5116;52.318;4.644;2022-09-29T02:16:17;1.37;;;1.27;;
10150;SDS011;5116;52.318;4.644;2022-09-29T02:21:15;1.03;;;1.03;;
10150;SDS011;5116;52.318;4.644;2022-09-29T02:23:43;1.03;;;1.03;;
10150;SDS011;5116;52.318;4.644;2022-09-29T02:26:10;1.30;;;1.20;;
10150;SDS011;5116;52.318;4.644;2022-09-29T02:28:38;1.23;;;1.17;;
10150;SDS011;5116;52.318;4.644;2022-09-29T02:31:06;1.33;;;1.23;;
10150;SDS011;5116;52.318;4.644;2022-09-29T02:33:33;1.33;;;1.23;;
10150;SDS011;5116;52.318;4.644;2022-09-29T02:38:36;1.03;;;1.03;;
10150;SDS011;5116;52.318;4.644;2022-09-29T02:43:59;1.30;;;1.20;;
10150;SDS011;5116;52.318;4.644;2022-09-29T02:51:42;1.50;;;1.40;;
10150;SDS011;5116;52.318;4.644;2022-09-29T02:56:46;1.53;;;1.43;;
10150;SDS011;5116;52.318;4.644;2022-09-29T02:59:20;1.03;;;1.00;;
10150;SDS011;5116;52.318;4.644;2022-09-29T03:01:54;1.20;;;1.20;;
10150;SDS011;5116;52.318;4.644;2022-09-29T03:04:22;1.50;;;1.40;;
10150;SDS011;5116;52.318;4.644;2022-09-29T03:06:50;1.40;;;1.30;;
10150;SDS011;5116;52.318;4.644;2022-09-29T03:09:17;1.13;;;1.10;;
10150;SDS011;5116;52.318;4.644;2022-09-29T03:11:45;1.33;;;1.20;;
10150;SDS011;5116;52.318;4.644;2022-09-29T03:14:12;1.30;;;1.20;;
10150;SDS011;5116;52.318;4.644;2022-09-29T03:16:39;1.40;;;1.30;;
10150;SDS011;5116;52.318;4.644;2022-09-29T03:19:08;1.33;;;1.23;;
10150;SDS011;5116;52.318;4.644;2022-09-29T03:21:35;1.33;;;1.23;;
10150;SDS011;5116;52.318;4.644;2022-09-29T03:24:02;1.37;;;1.27;;
10150;SDS011;5116;52.318;4.644;2022-09-29T03:26:31;1.50;;;1.40;;
10150;SDS011;5116;52.318;4.644;2022-09-29T03:28:58;1.30;;;1.20;;
10150;SDS011;5116;52.318;4.644;2022-09-29T03:31:26;1.20;;;1.10;;
10150;SDS011;5116;52.318;4.644;2022-09-29T03:33:53;1.10;;;1.10;;
10150;SDS011;5116;52.318;4.644;2022-09-29T03:36:21;1.43;;;1.33;;
10150;SDS011;5116;52.318;4.644;2022-09-29T03:38:48;1.20;;;1.10;;
10150;SDS011;5116;52.318;4.644;2022-09-29T03:41:15;1.43;;;1.33;;
10150;SDS011;5116;52.318;4.644;2022-09-29T03:43:43;1.20;;;1.10;;
10150;SDS011;5116;52.318;4.644;2022-09-29T03:46:10;1.23;;;1.13;;
10150;SDS011;5116;52.318;4.644;2022-09-29T03:48:37;1.60;;;1.50;;
10150;SDS011;5116;52.318;4.644;2022-09-29T03:51:05;1.00;;;1.00;;
10150;SDS011;5116;52.318;4.644;2022-09-29T03:53:35;1.93;;;1.50;;
10150;SDS011;5116;52.318;4.644;2022-09-29T03:56:03;1.10;;;1.10;;
10150;SDS011;5116;52.318;4.644;2022-09-29T03:58:30;1.50;;;1.40;;
10150;SDS011;5116;52.318;4.644;2022-09-29T04:00:58;1.10;;;1.10;;
10150;SDS011;5116;52.318;4.644;2022-09-29T04:03:27;1.30;;;1.20;;
10150;SDS011;5116;52.318;4.644;2022-09-29T04:05:54;1.33;;;1.27;;
10150;SDS011;5116;52.318;4.644;2022-09-29T04:08:22;1.40;;;1.30;;
10150;SDS011;5116;52.318;4.644;2022-09-29T04:10:49;1.33;;;1.30;;
10150;SDS011;5116;52.318;4.644;2022-09-29T04:13:16;1.10;;;1.10;;
10150;SDS011;5116;52.318;4.644;2022-09-29T04:15:45;1.20;;;1.20;;
10150;SDS011;5116;52.318;4.644;2022-09-29T04:18:13;1.30;;;1.27;;
10150;SDS011;5116;52.318;4.644;2022-09-29T04:20:40;1.57;;;1.47;;
10150;SDS011;5116;52.318;4.644;2022-09-29T04:23:07;1.40;;;1.30;;
10150;SDS011;5116;52.318;4.644;2022-09-29T04:25:35;1.00;;;1.00;;
10150;SDS011;5116;52.318;4.644;2022-09-29T04:28:02;1.07;;;1.07;;
10150;SDS011;5116;52.318;4.644;2022-09-29T04:30:29;1.70;;;1.60;;
10150;SDS011;5116;52.318;4.644;2022-09-29T04:32:57;1.70;;;1.60;;
10150;SDS011;5116;52.318;4.644;2022-09-29T04:35:24;1.10;;;1.10;;
10150;SDS011;5116;52.318;4.644;2022-09-29T04:37:55;1.03;;;1.03;;
10150;SDS011;5116;52.318;4.644;2022-09-29T04:40:23;1.10;;;1.10;;
10150;SDS011;5116;52.318;4.644;2022-09-29T04:42:50;1.20;;;1.13;;
10150;SDS011;5116;52.318;4.644;2022-09-29T04:45:17;1.13;;;1.07;;
10150;SDS011;5116;52.318;4.644;2022-09-29T04:47:45;1.40;;;1.30;;
10150;SDS011;5116;52.318;4.644;2022-09-29T04:50:12;1.50;;;1.40;;
10150;SDS011;5116;52.318;4.644;2022-09-29T04:52:42;1.60;;;1.40;;
10150;SDS011;5116;52.318;4.644;2022-09-29T04:55:10;1.23;;;1.13;;
10150;SDS011;5116;52.318;4.644;2022-09-29T04:57:38;1.47;;;1.37;;
10150;SDS011;5116;52.318;4.644;2022-09-29T05:00:05;1.23;;;1.20;;
10150;SDS011;5116;52.318;4.644;2022-09-29T05:02:33;1.60;;;1.50;;
10150;SDS011;5116;52.318;4.644;2022-09-29T05:05:01;1.47;;;1.37;;
10150;SDS011;5116;52.318;4.644;2022-09-29T05:07:28;1.40;;;1.30;;
10150;SDS011;5116;52.318;4.644;2022-09-29T05:09:56;1.50;;;1.40;;
10150;SDS011;5116;52.318;4.644;2022-09-29T05:12:23;1.60;;;1.50;;
10150;SDS011;5116;52.318;4.644;2022-09-29T05:14:50;1.60;;;1.50;;
10150;SDS011;5116;52.318;4.644;2022-09-29T05:17:18;2.53;;;1.83;;
10150;SDS011;5116;52.318;4.644;2022-09-29T05:19:45;1.50;;;1.40;;
10150;SDS011;5116;52.318;4.644;2022-09-29T05:22:12;1.60;;;1.50;;
10150;SDS011;5116;52.318;4.644;2022-09-29T05:24:40;1.93;;;1.60;;
10150;SDS011;5116;52.318;4.644;2022-09-29T05:27:07;1.63;;;1.40;;
10150;SDS011;5116;52.318;4.644;2022-09-29T05:29:34;1.57;;;1.47;;
10150;SDS011;5116;52.318;4.644;2022-09-29T05:32:01;1.70;;;1.60;;
10150;SDS011;5116;52.318;4.644;2022-09-29T05:34:29;1.80;;;1.63;;
10150;SDS011;5116;52.318;4.644;2022-09-29T05:36:56;1.93;;;1.73;;
10150;SDS011;5116;52.318;4.644;2022-09-29T05:39:23;1.80;;;1.63;;
10150;SDS011;5116;52.318;4.644;2022-09-29T05:41:51;1.70;;;1.60;;
10150;SDS011;5116;52.318;4.644;2022-09-29T05:44:24;1.97;;;1.63;;
10150;SDS011;5116;52.318;4.644;2022-09-29T05:46:52;1.60;;;1.50;;
10150;SDS011;5116;52.318;4.644;2022-09-29T05:49:19;1.43;;;1.33;;
10150;SDS011;5116;52.318;4.644;2022-09-29T05:51:46;1.73;;;1.63;;
10150;SDS011;5116;52.318;4.644;2022-09-29T05:54:13;2.03;;;1.93;;
10150;SDS011;5116;52.318;4.644;2022-09-29T05:56:41;1.53;;;1.43;;
10150;SDS011;5116;52.318;4.644;2022-09-29T05:59:11;2.37;;;1.83;;
10150;SDS011;5116;52.318;4.644;2022-09-29T06:01:38;2.10;;;1.90;;
10150;SDS011;5116;52.318;4.644;2022-09-29T06:04:05;2.10;;;2.00;;
10150;SDS011;5116;52.318;4.644;2022-09-29T06:06:33;1.87;;;1.77;;
10150;SDS011;5116;52.318;4.644;2022-09-29T06:09:02;1.97;;;1.87;;
10150;SDS011;5116;52.318;4.644;2022-09-29T06:11:29;1.70;;;1.60;;
10150;SDS011;5116;52.318;4.644;2022-09-29T06:13:57;2.57;;;2.17;;
10150;SDS011;5116;52.318;4.644;2022-09-29T06:16:26;1.80;;;1.70;;
10150;SDS011;5116;52.318;4.644;2022-09-29T06:18:53;2.03;;;1.87;;
10150;SDS011;5116;52.318;4.644;2022-09-29T06:21:21;1.93;;;1.70;;
10150;SDS011;5116;52.318;4.644;2022-09-29T06:23:49;1.67;;;1.57;;
10150;SDS011;5116;52.318;4.644;2022-09-29T06:26:18;1.70;;;1.60;;
10150;SDS011;5116;52.318;4.644;2022-09-29T06:28:50;1.77;;;1.67;;
10150;SDS011;5116;52.318;4.644;2022-09-29T06:31:18;1.73;;;1.63;;
10150;SDS011;5116;52.318;4.644;2022-09-29T06:33:46;1.90;;;1.77;;
10150;SDS011;5116;52.318;4.644;2022-09-29T06:36:24;2.00;;;1.80;;
10150;SDS011;5116;52.318;4.644;2022-09-29T06:39:12;2.10;;;1.93;;
10150;SDS011;5116;52.318;4.644;2022-09-29T06:41:40;2.00;;;1.87;;
10150;SDS011;5116;52.318;4.644;2022-09-29T06:44:09;1.90;;;1.70;;
10150;SDS011;5116;52.318;4.644;2022-09-29T06:46:37;2.17;;;1.97;;
10150;SDS011;5116;52.318;4.644;2022-09-29T06:49:04;2.13;;;1.93;;
10150;SDS011;5116;52.318;4.644;2022-09-29T06:51:32;1.80;;;1.70;;
10150;SDS011;5116;52.318;4.644;2022-09-29T06:54:15;2.17;;;1.97;;
10150;SDS011;5116;52.318;4.644;2022-09-29T06:56:49;2.30;;;2.10;;
10150;SDS011;5116;52.318;4.644;2022-09-29T06:59:17;2.07;;;1.87;;
10150;SDS011;5116;52.318;4.644;2022-09-29T07:01:45;2.17;;;1.80;;
10150;SDS011;5116;52.318;4.644;2022-09-29T07:04:17;2.10;;;1.73;;
10150;SDS011;5116;52.318;4.644;2022-09-29T07:06:45;2.10;;;1.90;;
10150;SDS011;5116;52.318;4.644;2022-09-29T07:09:12;1.70;;;1.60;;
10150;SDS011;5116;52.318;4.644;2022-09-29T07:11:47;1.70;;;1.60;;
10150;SDS011;5116;52.318;4.644;2022-09-29T07:14:15;2.00;;;1.80;;
10150;SDS011;5116;52.318;4.644;2022-09-29T07:16:42;1.90;;;1.70;;
10150;SDS011;5116;52.318;4.644;2022-09-29T07:19:10;1.87;;;1.77;;
10150;SDS011;5116;52.318;4.644;2022-09-29T07:21:37;2.50;;;2.30;;
10150;SDS011;5116;52.318;4.644;2022-09-29T07:24:06;2.43;;;1.90;;
10150;SDS011;5116;52.318;4.644;2022-09-29T07:26:34;1.90;;;1.80;;
10150;SDS011;5116;52.318;4.644;2022-09-29T07:29:01;2.30;;;2.10;;
10150;SDS011;5116;52.318;4.644;2022-09-29T07:31:28;2.10;;;2.00;;
10150;SDS011;5116;52.318;4.644;2022-09-29T07:34:07;1.80;;;1.70;;
10150;SDS011;5116;52.318;4.644;2022-09-29T07:36:34;2.30;;;2.10;;
10150;SDS011;5116;52.318;4.644;2022-09-29T07:39:04;2.30;;;1.90;;
10150;SDS011;5116;52.318;4.644;2022-09-29T07:41:31;2.70;;;2.13;;
10150;SDS011;5116;52.318;4.644;2022-09-29T07:43:58;2.80;;;2.55;;
10150;SDS011;5116;52.318;4.644;2022-09-29T07:46:26;2.50;;;2.27;;
10150;SDS011;5116;52.318;4.644;2022-09-29T07:48:53;2.20;;;1.97;;
10150;SDS011;5116;52.318;4.644;2022-09-29T07:51:20;1.87;;;1.77;;
10150;SDS011;5116;52.318;4.644;2022-09-29T07:53:48;2.60;;;2.10;;
10150;SDS011;5116;52.318;4.644;2022-09-29T07:56:16;1.90;;;1.80;;
10150;SDS011;5116;52.318;4.644;2022-09-29T07:58:47;1.90;;;1.80;;
10150;SDS011;5116;52.318;4.644;2022-09-29T08:01:15;2.23;;;1.97;;
10150;SDS011;5116;52.318;4.644;2022-09-29T08:03:47;1.90;;;1.80;;
10150;SDS011;5116;52.318;4.644;2022-09-29T08:06:15;2.73;;;2.40;;
10150;SDS011;5116;52.318;4.644;2022-09-29T08:08:42;2.53;;;2.33;;
10150;SDS011;5116;52.318;4.644;2022-09-29T08:11:25;3.13;;;2.67;;
10150;SDS011;5116;52.318;4.644;2022-09-29T08:13:57;2.63;;;2.10;;
10150;SDS011;5116;52.318;4.644;2022-09-29T08:16:25;2.20;;;2.00;;
10150;SDS011;5116;52.318;4.644;2022-09-29T08:18:53;2.73;;;2.20;;
10150;SDS011;5116;52.318;4.644;2022-09-29T08:21:20;2.30;;;2.10;;
10150;SDS011;5116;52.318;4.644;2022-09-29T08:23:47;3.37;;;2.67;;
10150;SDS011;5116;52.318;4.644;2022-09-29T08:26:16;2.97;;;2.67;;
10150;SDS011;5116;52.318;4.644;2022-09-29T08:28:47;3.40;;;2.77;;
10150;SDS011;5116;52.318;4.644;2022-09-29T08:31:29;1.90;;;1.77;;
10150;SDS011;5116;52.318;4.644;2022-09-29T08:33:57;1.90;;;1.80;;
10150;SDS011;5116;52.318;4.644;2022-09-29T08:36:24;2.40;;;2.23;;
10150;SDS011;5116;52.318;4.644;2022-09-29T08:38:53;2.30;;;2.10;;
10150;SDS011;5116;52.318;4.644;2022-09-29T08:43:47;3.63;;;2.63;;
10150;SDS011;5116;52.318;4.644;2022-09-29T08:49:02;2.13;;;1.93;;
10150;SDS011;5116;52.318;4.644;2022-09-29T08:51:32;2.30;;;2.10;;
10150;SDS011;5116;52.318;4.644;2022-09-29T08:54:30;2.50;;;2.30;;
10150;SDS011;5116;52.318;4.644;2022-09-29T08:57:04;2.27;;;2.10;;
10150;SDS011;5116;52.318;4.644;2022-09-29T08:59:32;1.83;;;1.73;;
10150;SDS011;5116;52.318;4.644;2022-09-29T09:04:57;2.73;;;2.40;;
10150;SDS011;5116;52.318;4.644;2022-09-29T09:07:37;2.60;;;2.40;;
10150;SDS011;5116;52.318;4.644;2022-09-29T09:17:57;2.30;;;2.10;;
10150;SDS011;5116;52.318;4.644;2022-09-29T09:20:43;2.70;;;2.50;;
10150;SDS011;5116;52.318;4.644;2022-09-29T09:23:14;2.67;;;2.47;;
10150;SDS011;5116;52.318;4.644;2022-09-29T09:25:54;3.70;;;3.17;;
10150;SDS011;5116;52.318;4.644;2022-09-29T09:28:28;3.53;;;2.33;;
10150;SDS011;5116;52.318;4.644;2022-09-29T09:30:59;3.10;;;2.80;;
10150;SDS011;5116;52.318;4.644;2022-09-29T09:36:00;2.50;;;2.30;;
10150;SDS011;5116;52.318;4.644;2022-09-29T09:38:45;3.43;;;2.70;;
10150;SDS011;5116;52.318;4.644;2022-09-29T09:41:14;2.70;;;2.27;;
10150;SDS011;5116;52.318;4.644;2022-09-29T09:43:44;4.77;;;3.27;;
10150;SDS011;5116;52.318;4.644;2022-09-29T09:46:14;2.70;;;2.50;;
10150;SDS011;5116;52.318;4.644;2022-09-29T09:53:48;5.80;;;3.93;;
10150;SDS011;5116;52.318;4.644;2022-09-29T10:01:14;2.47;;;2.27;;
10150;SDS011;5116;52.318;4.644;2022-09-29T10:03:41;4.60;;;3.07;;
10150;SDS011;5116;52.318;4.644;2022-09-29T10:06:09;4.03;;;3.20;;
10150;SDS011;5116;52.318;4.644;2022-09-29T10:08:37;3.70;;;3.23;;
10150;SDS011;5116;52.318;4.644;2022-09-29T10:11:14;2.77;;;2.50;;
10150;SDS011;5116;52.318;4.644;2022-09-29T10:13:45;3.40;;;3.10;;
10150;SDS011;5116;52.318;4.644;2022-09-29T10:16:16;3.07;;;2.67;;
10150;SDS011;5116;52.318;4.644;2022-09-29T10:18:46;4.67;;;2.20;;
10150;SDS011;5116;52.318;4.644;2022-09-29T10:21:18;2.70;;;2.50;;
10150;SDS011;5116;52.318;4.644;2022-09-29T10:23:51;2.80;;;2.60;;
10150;SDS011;5116;52.318;4.644;2022-09-29T10:29:03;2.57;;;2.10;;
10150;SDS011;5116;52.318;4.644;2022-09-29T10:31:41;2.03;;;1.90;;
10150;SDS011;5116;52.318;4.644;2022-09-29T10:36:52;2.00;;;1.80;;
10150;SDS011;5116;52.318;4.644;2022-09-29T10:42:00;1.67;;;1.53;;
10150;SDS011;5116;52.318;4.644;2022-09-29T10:44:31;2.30;;;2.10;;
10150;SDS011;5116;52.318;4.644;2022-09-29T10:46:58;2.13;;;2.00;;
10150;SDS011;5116;52.318;4.644;2022-09-29T10:49:26;1.53;;;1.43;;
10150;SDS011;5116;52.318;4.644;2022-09-29T10:52:02;1.83;;;1.73;;
10150;SDS011;5116;52.318;4.644;2022-09-29T10:54:39;1.77;;;1.60;;
10150;SDS011;5116;52.318;4.644;2022-09-29T10:57:19;1.50;;;1.40;;
10150;SDS011;5116;52.318;4.644;2022-09-29T10:59:49;2.13;;;1.80;;
10150;SDS011;5116;52.318;4.644;2022-09-29T11:02:20;2.10;;;1.90;;
10150;SDS011;5116;52.318;4.644;2022-09-29T11:04:50;1.87;;;1.70;;
10150;SDS011;5116;52.318;4.644;2022-09-29T11:07:17;2.10;;;1.80;;
10150;SDS011;5116;52.318;4.644;2022-09-29T11:09:45;1.90;;;1.80;;
10150;SDS011;5116;52.318;4.644;2022-09-29T11:12:23;1.90;;;1.80;;
10150;SDS011;5116;52.318;4.644;2022-09-29T11:14:51;2.50;;;2.30;;
10150;SDS011;5116;52.318;4.644;2022-09-29T11:17:28;2.10;;;1.80;;
10150;SDS011;5116;52.318;4.644;2022-09-29T11:20:00;1.70;;;1.60;;
10150;SDS011;5116;52.318;4.644;2022-09-29T11:22:35;1.63;;;1.53;;
10150;SDS011;5116;52.318;4.644;2022-09-29T11:25:19;1.70;;;1.60;;
10150;SDS011;5116;52.318;4.644;2022-09-29T11:30:41;1.63;;;1.53;;
10150;SDS011;5116;52.318;4.644;2022-09-29T11:38:44;2.07;;;1.87;;
10150;SDS011;5116;52.318;4.644;2022-09-29T11:43:52;1.70;;;1.60;;
10150;SDS011;5116;52.318;4.644;2022-09-29T11:46:28;1.80;;;1.70;;
10150;SDS011;5116;52.318;4.644;2022-09-29T11:49:05;1.90;;;1.80;;
10150;SDS011;5116;52.318;4.644;2022-09-29T11:51:43;2.20;;;2.10;;
10150;SDS011;5116;52.318;4.644;2022-09-29T12:01:51;1.60;;;1.50;;
10150;SDS011;5116;52.318;4.644;2022-09-29T12:06:58;1.60;;;1.50;;
10150;SDS011;5116;52.318;4.644;2022-09-29T12:17:27;1.23;;;1.23;;
10150;SDS011;5116;52.318;4.644;2022-09-29T12:20:04;1.60;;;1.50;;
10150;SDS011;5116;52.318;4.644;2022-09-29T12:22:32;1.60;;;1.50;;
10150;SDS011;5116;52.318;4.644;2022-09-29T12:25:03;1.60;;;1.50;;
10150;SDS011;5116;52.318;4.644;2022-09-29T12:27:32;1.60;;;1.50;;
10150;SDS011;5116;52.318;4.644;2022-09-29T12:30:02;1.50;;;1.40;;
10150;SDS011;5116;52.318;4.644;2022-09-29T12:32:37;1.40;;;1.30;;
10150;SDS011;5116;52.318;4.644;2022-09-29T12:38:11;1.60;;;1.50;;
10150;SDS011;5116;52.318;4.644;2022-09-29T12:40:43;1.90;;;1.80;;
10150;SDS011;5116;52.318;4.644;2022-09-29T12:43:22;1.70;;;1.60;;
10150;SDS011;5116;52.318;4.644;2022-09-29T12:56:42;1.43;;;1.33;;
10150;SDS011;5116;52.318;4.644;2022-09-29T12:59:13;1.50;;;1.40;;
10150;SDS011;5116;52.318;4.644;2022-09-29T13:01:42;1.10;;;1.10;;
10150;SDS011;5116;52.318;4.644;2022-09-29T13:04:20;1.50;;;1.40;;
10150;SDS011;5116;52.318;4.644;2022-09-29T13:07:11;1.40;;;1.30;;
10150;SDS011;5116;52.318;4.644;2022-09-29T13:12:37;1.30;;;1.30;;
10150;SDS011;5116;52.318;4.644;2022-09-29T13:17:59;1.00;;;1.00;;
10150;SDS011;5116;52.318;4.644;2022-09-29T13:23:14;1.60;;;1.50;;
10150;SDS011;5116;52.318;4.644;2022-09-29T13:25:55;1.70;;;1.60;;
10150;SDS011;5116;52.318;4.644;2022-09-29T13:30:51;1.37;;;1.27;;
10150;SDS011;5116;52.318;4.644;2022-09-29T13:33:22;1.30;;;1.20;;
10150;SDS011;5116;52.318;4.644;2022-09-29T13:35:50;1.67;;;1.57;;
10150;SDS011;5116;52.318;4.644;2022-09-29T13:38:19;1.90;;;1.80;;
10150;SDS011;5116;52.318;4.644;2022-09-29T13:43:38;1.40;;;1.30;;
10150;SDS011;5116;52.318;4.644;2022-09-29T13:48:54;1.00;;;1.00;;
10150;SDS011;5116;52.318;4.644;2022-09-29T13:51:40;1.00;;;1.00;;
10150;SDS011;5116;52.318;4.644;2022-09-29T13:56:56;1.17;;;1.17;;
10150;SDS011;5116;52.318;4.644;2022-09-29T13:59:24;1.30;;;1.20;;
10150;SDS011;5116;52.318;4.644;2022-09-29T14:01:52;1.00;;;1.00;;
10150;SDS011;5116;52.318;4.644;2022-09-29T14:04:30;1.13;;;1.10;;
10150;SDS011;5116;52.318;4.644;2022-09-29T14:07:04;1.17;;;1.07;;
10150;SDS011;5116;52.318;4.644;2022-09-29T14:09:33;1.20;;;1.10;;
10150;SDS011;5116;52.318;4.644;2022-09-29T14:12:06;1.40;;;1.30;;
10150;SDS011;5116;52.318;4.644;2022-09-29T14:14:36;1.20;;;1.17;;
10150;SDS011;5116;52.318;4.644;2022-09-29T14:17:10;1.30;;;1.30;;
10150;SDS011;5116;52.318;4.644;2022-09-29T14:19:55;1.40;;;1.30;;
10150;SDS011;5116;52.318;4.644;2022-09-29T14:32:54;1.53;;;1.20;;
10150;SDS011;5116;52.318;4.644;2022-09-29T14:35:32;1.20;;;1.20;;
10150;SDS011;5116;52.318;4.644;2022-09-29T14:40:26;1.10;;;1.10;;
10150;SDS011;5116;52.318;4.644;2022-09-29T14:43:04;1.33;;;1.30;;
10150;SDS011;5116;52.318;4.644;2022-09-29T14:45:34;1.30;;;1.20;;
10150;SDS011;5116;52.318;4.644;2022-09-29T14:48:27;1.30;;;1.23;;
10150;SDS011;5116;52.318;4.644;2022-09-29T14:51:39;1.47;;;1.37;;
10150;SDS011;5116;52.318;4.644;2022-09-29T14:56:54;1.37;;;1.27;;
10150;SDS011;5116;52.318;4.644;2022-09-29T15:02:38;1.20;;;1.20;;
10150;SDS011;5116;52.318;4.644;2022-09-29T15:04:44;1.40;;;1.10;;
10150;SDS011;5116;52.318;4.644;2022-09-29T15:10:49;1.00;;;1.00;;
10150;SDS011;5116;52.318;4.644;2022-09-29T15:13:24;1.27;;;1.17;;
10150;SDS011;5116;52.318;4.644;2022-09-29T15:15:59;1.30;;;1.20;;
10150;SDS011;5116;52.318;4.644;2022-09-29T15:24:36;1.40;;;1.30;;
10150;SDS011;5116;52.318;4.644;2022-09-29T15:27:08;1.43;;;1.40;;
10150;SDS011;5116;52.318;4.644;2022-09-29T15:29:38;1.40;;;1.30;;
10150;SDS011;5116;52.318;4.644;2022-09-29T15:32:18;1.27;;;1.20;;
10150;SDS011;5116;52.318;4.644;2022-09-29T15:34:46;1.20;;;1.20;;
10150;SDS011;5116;52.318;4.644;2022-09-29T15:37:20;1.10;;;1.10;;
10150;SDS011;5116;52.318;4.644;2022-09-29T15:39:50;1.03;;;1.03;;
10150;SDS011;5116;52.318;4.644;2022-09-29T15:42:21;1.10;;;1.10;;
10150;SDS011;5116;52.318;4.644;2022-09-29T15:44:50;1.17;;;1.17;;
10150;SDS011;5116;52.318;4.644;2022-09-29T15:47:22;0.90;;;0.90;;
10150;SDS011;5116;52.318;4.644;2022-09-29T15:49:52;1.17;;;1.17;;
10150;SDS011;5116;52.318;4.644;2022-09-29T15:52:20;1.13;;;1.10;;
10150;SDS011;5116;52.318;4.644;2022-09-29T15:54:52;1.27;;;1.20;;
10150;SDS011;5116;52.318;4.644;2022-09-29T15:57:26;1.97;;;1.80;;
10150;SDS011;5116;52.318;4.644;2022-09-29T16:05:17;1.40;;;1.40;;
10150;SDS011;5116;52.318;4.644;2022-09-29T16:07:47;1.23;;;1.17;;
10150;SDS011;5116;52.318;4.644;2022-09-29T16:10:17;1.73;;;1.20;;
10150;SDS011;5116;52.318;4.644;2022-09-29T16:12:52;1.13;;;1.13;;
10150;SDS011;5116;52.318;4.644;2022-09-29T16:15:28;1.23;;;1.23;;
10150;SDS011;5116;52.318;4.644;2022-09-29T16:17:57;1.07;;;1.07;;
10150;SDS011;5116;52.318;4.644;2022-09-29T16:20:27;1.07;;;1.07;;
10150;SDS011;5116;52.318;4.644;2022-09-29T16:22:55;0.90;;;0.90;;
10150;SDS011;5116;52.318;4.644;2022-09-29T16:25:27;1.07;;;1.00;;
10150;SDS011;5116;52.318;4.644;2022-09-29T16:27:55;1.13;;;1.13;;
10150;SDS011;5116;52.318;4.644;2022-09-29T16:30:25;0.90;;;0.90;;
10150;SDS011;5116;52.318;4.644;2022-09-29T16:32:54;1.13;;;1.13;;
10150;SDS011;5116;52.318;4.644;2022-09-29T16:35:41;1.23;;;1.13;;
10150;SDS011;5116;52.318;4.644;2022-09-29T16:38:30;1.10;;;1.10;;
10150;SDS011;5116;52.318;4.644;2022-09-29T16:43:46;0.90;;;0.90;;
10150;SDS011;5116;52.318;4.644;2022-09-29T16:46:16;1.90;;;1.00;;
10150;SDS011;5116;52.318;4.644;2022-09-29T16:48:45;0.90;;;0.90;;
10150;SDS011;5116;52.318;4.644;2022-09-29T16:51:15;1.10;;;1.10;;
10150;SDS011;5116;52.318;4.644;2022-09-29T16:54:03;1.23;;;1.17;;
10150;SDS011;5116;52.318;4.644;2022-09-29T16:56:30;1.00;;;1.00;;
10150;SDS011;5116;52.318;4.644;2022-09-29T16:59:14;1.03;;;1.00;;
10150;SDS011;5116;52.318;4.644;2022-09-29T17:01:42;0.90;;;0.90;;
10150;SDS011;5116;52.318;4.644;2022-09-29T17:04:11;1.00;;;1.00;;
10150;SDS011;5116;52.318;4.644;2022-09-29T17:06:40;1.00;;;1.00;;
10150;SDS011;5116;52.318;4.644;2022-09-29T17:09:14;0.90;;;0.90;;
10150;SDS011;5116;52.318;4.644;2022-09-29T17:11:42;1.00;;;1.00;;
10150;SDS011;5116;52.318;4.644;2022-09-29T17:14:11;1.00;;;1.00;;
10150;SDS011;5116;52.318;4.644;2022-09-29T17:16:38;0.90;;;0.90;;
10150;SDS011;5116;52.318;4.644;2022-09-29T17:19:08;0.80;;;0.80;;
10150;SDS011;5116;52.318;4.644;2022-09-29T17:21:35;0.83;;;0.83;;
10150;SDS011;5116;52.318;4.644;2022-09-29T17:24:03;1.07;;;1.07;;
10150;SDS011;5116;52.318;4.644;2022-09-29T17:26:34;0.90;;;0.90;;
10150;SDS011;5116;52.318;4.644;2022-09-29T17:29:21;0.90;;;0.90;;
10150;SDS011;5116;52.318;4.644;2022-09-29T17:31:49;0.90;;;0.90;;
10150;SDS011;5116;52.318;4.644;2022-09-29T17:34:16;1.10;;;1.00;;
10150;SDS011;5116;52.318;4.644;2022-09-29T17:36:47;0.90;;;0.90;;
10150;SDS011;5116;52.318;4.644;2022-09-29T17:39:14;0.80;;;0.80;;
10150;SDS011;5116;52.318;4.644;2022-09-29T17:41:42;0.77;;;0.70;;
10150;SDS011;5116;52.318;4.644;2022-09-29T17:44:11;0.80;;;0.80;;
10150;SDS011;5116;52.318;4.644;2022-09-29T17:46:38;1.13;;;0.90;;
10150;SDS011;5116;52.318;4.644;2022-09-29T17:49:10;0.90;;;0.90;;
10150;SDS011;5116;52.318;4.644;2022-09-29T17:51:37;0.70;;;0.70;;
10150;SDS011;5116;52.318;4.644;2022-09-29T17:54:05;1.73;;;1.00;;
10150;SDS011;5116;52.318;4.644;2022-09-29T17:56:33;0.80;;;0.80;;
10150;SDS011;5116;52.318;4.644;2022-09-29T17:59:04;0.80;;;0.80;;
10150;SDS011;5116;52.318;4.644;2022-09-29T18:01:33;0.70;;;0.70;;
10150;SDS011;5116;52.318;4.644;2022-09-29T18:04:01;0.80;;;0.80;;
10150;SDS011;5116;52.318;4.644;2022-09-29T18:06:28;1.13;;;1.00;;
10150;SDS011;5116;52.318;4.644;2022-09-29T18:08:57;0.80;;;0.80;;
10150;SDS011;5116;52.318;4.644;2022-09-29T18:11:25;1.00;;;1.00;;
10150;SDS011;5116;52.318;4.644;2022-09-29T18:13:52;1.17;;;1.10;;